sensor_id;sensor_type;location;lat;lon;timestamp;temperature;humidity
59847;DHT22;45728;48.788;2.302;2022-08-14T00:00:16;23.70;64.30
59847;DHT22;45728;48.788;2.302;2022-08-14T00:02:43;23.60;64.40
59847;DHT22;45728;48.788;2.302;2022-08-14T00:05:10;23.60;64.40
59847;DHT22;45728;48.788;2.302;2022-08-14T00:07:36;23.50;64.60
59847;DHT22;45728;48.788;2.302;2022-08-14T00:10:03;23.50;65.00
59847;DHT22;45728;48.788;2.302;2022-08-14T00:12:30;23.50;64.80
59847;DHT22;45728;48.788;2.302;2022-08-14T00:14:56;23.50;64.80
59847;DHT22;45728;48.788;2.302;2022-08-14T00:17:22;23.50;64.80
59847;DHT22;45728;48.788;2.302;2022-08-14T00:19:49;23.50;64.80
59847;DHT22;45728;48.788;2.302;2022-08-14T00:22:15;23.50;64.70
59847;DHT22;45728;48.788;2.302;2022-08-14T00:24:43;23.50;64.90
59847;DHT22;45728;48.788;2.302;2022-08-14T00:27:10;23.50;64.50
59847;DHT22;45728;48.788;2.302;2022-08-14T00:29:35;23.50;64.80
59847;DHT22;45728;48.788;2.302;2022-08-14T00:32:02;23.50;64.60
59847;DHT22;45728;48.788;2.302;2022-08-14T00:34:27;23.50;64.80
59847;DHT22;45728;48.788;2.302;2022-08-14T00:36:53;23.50;64.80
59847;DHT22;45728;48.788;2.302;2022-08-14T00:39:19;23.50;65.00
59847;DHT22;45728;48.788;2.302;2022-08-14T00:41:45;23.50;64.70
59847;DHT22;45728;48.788;2.302;2022-08-14T00:44:12;23.50;64.80
59847;DHT22;45728;48.788;2.302;2022-08-14T00:46:38;23.70;64.60
59847;DHT22;45728;48.788;2.302;2022-08-14T00:49:05;23.60;64.90
59847;DHT22;45728;48.788;2.302;2022-08-14T00:51:33;23.60;64.90
59847;DHT22;45728;48.788;2.302;2022-08-14T00:53:59;23.60;64.70
59847;DHT22;45728;48.788;2.302;2022-08-14T00:56:27;23.70;64.70
59847;DHT22;45728;48.788;2.302;2022-08-14T00:58:53;23.60;65.20
59847;DHT22;45728;48.788;2.302;2022-08-14T01:01:24;23.40;65.90
59847;DHT22;45728;48.788;2.302;2022-08-14T01:03:50;23.30;66.00
59847;DHT22;45728;48.788;2.302;2022-08-14T01:06:17;23.40;65.70
59847;DHT22;45728;48.788;2.302;2022-08-14T01:08:43;23.40;65.60
59847;DHT22;45728;48.788;2.302;2022-08-14T01:11:10;23.40;66.00
59847;DHT22;45728;48.788;2.302;2022-08-14T01:13:41;23.30;66.20
59847;DHT22;45728;48.788;2.302;2022-08-14T01:16:08;23.30;66.10
59847;DHT22;45728;48.788;2.302;2022-08-14T01:18:34;23.40;66.00
59847;DHT22;45728;48.788;2.302;2022-08-14T01:21:22;23.30;65.90
59847;DHT22;45728;48.788;2.302;2022-08-14T01:23:49;23.40;66.00
59847;DHT22;45728;48.788;2.302;2022-08-14T01:26:15;23.40;66.10
59847;DHT22;45728;48.788;2.302;2022-08-14T01:28:46;23.40;65.90
59847;DHT22;45728;48.788;2.302;2022-08-14T01:31:13;23.40;65.90
59847;DHT22;45728;48.788;2.302;2022-08-14T01:33:40;23.30;66.30
59847;DHT22;45728;48.788;2.302;2022-08-14T01:36:11;23.30;66.20
59847;DHT22;45728;48.788;2.302;2022-08-14T01:38:38;23.40;66.30
59847;DHT22;45728;48.788;2.302;2022-08-14T01:41:06;23.40;66.10
59847;DHT22;45728;48.788;2.302;2022-08-14T01:43:40;23.30;66.10
59847;DHT22;45728;48.788;2.302;2022-08-14T01:46:06;23.20;67.00
59847;DHT22;45728;48.788;2.302;2022-08-14T01:48:36;23.20;66.90
59847;DHT22;45728;48.788;2.302;2022-08-14T01:51:06;23.10;67.90
59847;DHT22;45728;48.788;2.302;2022-08-14T01:53:32;23.00;67.60
59847;DHT22;45728;48.788;2.302;2022-08-14T01:55:59;23.00;67.50
59847;DHT22;45728;48.788;2.302;2022-08-14T01:58:27;23.00;66.90
59847;DHT22;45728;48.788;2.302;2022-08-14T02:00:54;23.10;67.60
59847;DHT22;45728;48.788;2.302;2022-08-14T02:03:25;23.00;67.70
59847;DHT22;45728;48.788;2.302;2022-08-14T02:05:51;23.00;67.60
59847;DHT22;45728;48.788;2.302;2022-08-14T02:08:17;23.00;67.80
59847;DHT22;45728;48.788;2.302;2022-08-14T02:10:43;23.00;67.60
59847;DHT22;45728;48.788;2.302;2022-08-14T02:13:09;23.00;67.10
59847;DHT22;45728;48.788;2.302;2022-08-14T02:15:36;23.00;67.30
59847;DHT22;45728;48.788;2.302;2022-08-14T02:18:05;23.00;67.80
59847;DHT22;45728;48.788;2.302;2022-08-14T02:20:32;23.00;68.00
59847;DHT22;45728;48.788;2.302;2022-08-14T02:22:59;22.80;67.70
59847;DHT22;45728;48.788;2.302;2022-08-14T02:25:25;23.00;68.30
59847;DHT22;45728;48.788;2.302;2022-08-14T02:27:51;22.90;68.00
59847;DHT22;45728;48.788;2.302;2022-08-14T02:30:23;22.80;68.20
59847;DHT22;45728;48.788;2.302;2022-08-14T02:32:51;22.80;68.40
59847;DHT22;45728;48.788;2.302;2022-08-14T02:35:17;22.70;68.30
59847;DHT22;45728;48.788;2.302;2022-08-14T02:37:44;22.80;68.10
59847;DHT22;45728;48.788;2.302;2022-08-14T02:40:10;22.80;68.60
59847;DHT22;45728;48.788;2.302;2022-08-14T02:42:37;22.70;68.70
59847;DHT22;45728;48.788;2.302;2022-08-14T02:45:04;22.70;68.60
59847;DHT22;45728;48.788;2.302;2022-08-14T02:47:30;22.80;68.40
59847;DHT22;45728;48.788;2.302;2022-08-14T02:49:56;22.80;68.20
59847;DHT22;45728;48.788;2.302;2022-08-14T02:52:23;22.80;68.70
59847;DHT22;45728;48.788;2.302;2022-08-14T02:54:50;22.70;68.90
59847;DHT22;45728;48.788;2.302;2022-08-14T02:57:17;22.60;69.00
59847;DHT22;45728;48.788;2.302;2022-08-14T02:59:43;22.60;69.30
59847;DHT22;45728;48.788;2.302;2022-08-14T03:02:09;22.60;69.00
59847;DHT22;45728;48.788;2.302;2022-08-14T03:04:37;22.60;69.60
59847;DHT22;45728;48.788;2.302;2022-08-14T03:07:03;22.60;69.40
59847;DHT22;45728;48.788;2.302;2022-08-14T03:09:29;22.60;69.50
59847;DHT22;45728;48.788;2.302;2022-08-14T03:11:55;22.60;69.20
59847;DHT22;45728;48.788;2.302;2022-08-14T03:14:21;22.60;69.60
59847;DHT22;45728;48.788;2.302;2022-08-14T03:16:50;22.60;69.20
59847;DHT22;45728;48.788;2.302;2022-08-14T03:19:16;22.60;69.90
59847;DHT22;45728;48.788;2.302;2022-08-14T03:21:42;22.60;69.60
59847;DHT22;45728;48.788;2.302;2022-08-14T03:24:08;22.60;69.50
59847;DHT22;45728;48.788;2.302;2022-08-14T03:26:37;22.50;69.70
59847;DHT22;45728;48.788;2.302;2022-08-14T03:29:04;22.50;70.70
59847;DHT22;45728;48.788;2.302;2022-08-14T03:31:30;22.50;69.90
59847;DHT22;45728;48.788;2.302;2022-08-14T03:33:57;22.40;70.40
59847;DHT22;45728;48.788;2.302;2022-08-14T03:36:23;22.50;69.70
59847;DHT22;45728;48.788;2.302;2022-08-14T03:38:50;22.50;70.00
59847;DHT22;45728;48.788;2.302;2022-08-14T03:41:19;22.50;70.20
59847;DHT22;45728;48.788;2.302;2022-08-14T03:43:46;22.50;70.30
59847;DHT22;45728;48.788;2.302;2022-08-14T03:46:13;22.40;70.30
59847;DHT22;45728;48.788;2.302;2022-08-14T03:48:39;22.40;70.40
59847;DHT22;45728;48.788;2.302;2022-08-14T03:51:06;22.40;71.10
59847;DHT22;45728;48.788;2.302;2022-08-14T03:53:36;22.30;71.40
59847;DHT22;45728;48.788;2.302;2022-08-14T03:56:03;22.30;71.80
59847;DHT22;45728;48.788;2.302;2022-08-14T03:58:29;22.30;71.70
59847;DHT22;45728;48.788;2.302;2022-08-14T04:00:57;22.30;72.00
59847;DHT22;45728;48.788;2.302;2022-08-14T04:03:23;22.40;71.90
59847;DHT22;45728;48.788;2.302;2022-08-14T04:05:51;22.40;72.10
59847;DHT22;45728;48.788;2.302;2022-08-14T04:08:17;22.30;72.20
59847;DHT22;45728;48.788;2.302;2022-08-14T04:10:43;22.40;72.30
59847;DHT22;45728;48.788;2.302;2022-08-14T04:13:11;22.40;71.90
59847;DHT22;45728;48.788;2.302;2022-08-14T04:15:37;22.40;72.30
59847;DHT22;45728;48.788;2.302;2022-08-14T04:18:03;22.40;72.10
59847;DHT22;45728;48.788;2.302;2022-08-14T04:20:31;22.40;72.60
59847;DHT22;45728;48.788;2.302;2022-08-14T04:22:57;22.40;72.30
59847;DHT22;45728;48.788;2.302;2022-08-14T04:25:23;22.40;71.40
59847;DHT22;45728;48.788;2.302;2022-08-14T04:27:48;22.50;71.20
59847;DHT22;45728;48.788;2.302;2022-08-14T04:30:14;22.50;70.70
59847;DHT22;45728;48.788;2.302;2022-08-14T04:32:41;22.50;70.20
59847;DHT22;45728;48.788;2.302;2022-08-14T04:35:07;22.50;69.70
59847;DHT22;45728;48.788;2.302;2022-08-14T04:37:35;22.50;69.70
59847;DHT22;45728;48.788;2.302;2022-08-14T04:40:19;22.50;69.50
59847;DHT22;45728;48.788;2.302;2022-08-14T04:43:04;22.50;69.40
59847;DHT22;45728;48.788;2.302;2022-08-14T04:45:48;22.50;69.30
59847;DHT22;45728;48.788;2.302;2022-08-14T04:48:15;22.60;69.20
59847;DHT22;45728;48.788;2.302;2022-08-14T04:50:44;22.50;69.80
59847;DHT22;45728;48.788;2.302;2022-08-14T04:53:12;22.40;69.30
59847;DHT22;45728;48.788;2.302;2022-08-14T04:55:39;22.40;69.30
59847;DHT22;45728;48.788;2.302;2022-08-14T04:58:05;22.40;69.30
59847;DHT22;45728;48.788;2.302;2022-08-14T05:00:31;22.40;69.10
59847;DHT22;45728;48.788;2.302;2022-08-14T05:02:57;22.50;69.00
59847;DHT22;45728;48.788;2.302;2022-08-14T05:05:24;22.40;69.10
59847;DHT22;45728;48.788;2.302;2022-08-14T05:07:50;22.40;69.00
59847;DHT22;45728;48.788;2.302;2022-08-14T05:10:16;22.50;69.00
59847;DHT22;45728;48.788;2.302;2022-08-14T05:12:51;22.50;69.00
59847;DHT22;45728;48.788;2.302;2022-08-14T05:15:17;22.40;69.30
59847;DHT22;45728;48.788;2.302;2022-08-14T05:17:46;22.40;69.30
59847;DHT22;45728;48.788;2.302;2022-08-14T05:20:11;22.40;69.10
59847;DHT22;45728;48.788;2.302;2022-08-14T05:22:37;22.40;69.30
59847;DHT22;45728;48.788;2.302;2022-08-14T05:25:03;22.50;69.20
59847;DHT22;45728;48.788;2.302;2022-08-14T05:27:29;22.50;69.10
59847;DHT22;45728;48.788;2.302;2022-08-14T05:29:55;22.50;69.30
59847;DHT22;45728;48.788;2.302;2022-08-14T05:32:23;22.50;69.60
59847;DHT22;45728;48.788;2.302;2022-08-14T05:34:49;22.40;69.60
59847;DHT22;45728;48.788;2.302;2022-08-14T05:37:15;22.40;69.60
59847;DHT22;45728;48.788;2.302;2022-08-14T05:39:41;22.40;69.50
59847;DHT22;45728;48.788;2.302;2022-08-14T05:42:07;22.50;69.80
59847;DHT22;45728;48.788;2.302;2022-08-14T05:44:33;22.50;69.60
59847;DHT22;45728;48.788;2.302;2022-08-14T05:46:59;22.50;69.90
59847;DHT22;45728;48.788;2.302;2022-08-14T05:49:25;22.40;70.80
59847;DHT22;45728;48.788;2.302;2022-08-14T05:51:51;22.40;71.50
59847;DHT22;45728;48.788;2.302;2022-08-14T05:54:17;22.40;70.40
59847;DHT22;45728;48.788;2.302;2022-08-14T05:56:42;22.50;70.00
59847;DHT22;45728;48.788;2.302;2022-08-14T05:59:09;22.40;70.00
59847;DHT22;45728;48.788;2.302;2022-08-14T06:01:35;22.40;70.10
59847;DHT22;45728;48.788;2.302;2022-08-14T06:04:01;22.40;70.10
59847;DHT22;45728;48.788;2.302;2022-08-14T06:06:27;22.30;70.30
59847;DHT22;45728;48.788;2.302;2022-08-14T06:08:53;22.30;70.10
59847;DHT22;45728;48.788;2.302;2022-08-14T06:11:19;22.40;70.00
59847;DHT22;45728;48.788;2.302;2022-08-14T06:13:45;22.40;70.20
59847;DHT22;45728;48.788;2.302;2022-08-14T06:16:12;22.40;70.30
59847;DHT22;45728;48.788;2.302;2022-08-14T06:18:38;22.40;70.30
59847;DHT22;45728;48.788;2.302;2022-08-14T06:21:05;22.40;70.40
59847;DHT22;45728;48.788;2.302;2022-08-14T06:23:31;22.40;70.40
59847;DHT22;45728;48.788;2.302;2022-08-14T06:25:56;22.50;70.70
59847;DHT22;45728;48.788;2.302;2022-08-14T06:28:24;22.50;70.20
59847;DHT22;45728;48.788;2.302;2022-08-14T06:30:53;22.50;70.40
59847;DHT22;45728;48.788;2.302;2022-08-14T06:33:19;22.40;70.60
59847;DHT22;45728;48.788;2.302;2022-08-14T06:35:46;22.40;70.60
59847;DHT22;45728;48.788;2.302;2022-08-14T06:38:18;22.40;70.80
59847;DHT22;45728;48.788;2.302;2022-08-14T06:40:45;22.40;71.20
59847;DHT22;45728;48.788;2.302;2022-08-14T06:43:12;22.50;71.30
59847;DHT22;45728;48.788;2.302;2022-08-14T06:45:39;22.40;71.50
59847;DHT22;45728;48.788;2.302;2022-08-14T06:48:15;22.40;72.00
59847;DHT22;45728;48.788;2.302;2022-08-14T06:50:42;22.40;71.60
59847;DHT22;45728;48.788;2.302;2022-08-14T06:53:08;22.50;71.60
59847;DHT22;45728;48.788;2.302;2022-08-14T06:55:35;22.50;71.80
59847;DHT22;45728;48.788;2.302;2022-08-14T06:58:01;22.50;71.70
59847;DHT22;45728;48.788;2.302;2022-08-14T07:00:27;22.50;71.70
59847;DHT22;45728;48.788;2.302;2022-08-14T07:02:53;22.50;71.90
59847;DHT22;45728;48.788;2.302;2022-08-14T07:05:38;22.50;71.90
59847;DHT22;45728;48.788;2.302;2022-08-14T07:08:18;22.60;72.00
59847;DHT22;45728;48.788;2.302;2022-08-14T07:10:46;22.50;72.00
59847;DHT22;45728;48.788;2.302;2022-08-14T07:13:12;22.50;72.20
59847;DHT22;45728;48.788;2.302;2022-08-14T07:15:39;22.50;72.80
59847;DHT22;45728;48.788;2.302;2022-08-14T07:18:09;22.50;73.20
59847;DHT22;45728;48.788;2.302;2022-08-14T07:20:35;22.70;72.80
59847;DHT22;45728;48.788;2.302;2022-08-14T07:23:02;22.70;72.50
59847;DHT22;45728;48.788;2.302;2022-08-14T07:25:28;22.70;72.30
59847;DHT22;45728;48.788;2.302;2022-08-14T07:27:54;22.80;72.00
59847;DHT22;45728;48.788;2.302;2022-08-14T07:30:20;22.90;71.80
59847;DHT22;45728;48.788;2.302;2022-08-14T07:32:47;22.90;71.40
59847;DHT22;45728;48.788;2.302;2022-08-14T07:35:13;22.90;71.40
59847;DHT22;45728;48.788;2.302;2022-08-14T07:37:38;23.10;71.50
59847;DHT22;45728;48.788;2.302;2022-08-14T07:40:04;23.30;71.40
59847;DHT22;45728;48.788;2.302;2022-08-14T07:42:30;23.50;70.30
59847;DHT22;45728;48.788;2.302;2022-08-14T07:44:57;23.40;70.40
59847;DHT22;45728;48.788;2.302;2022-08-14T07:47:24;23.50;70.30
59847;DHT22;45728;48.788;2.302;2022-08-14T07:49:58;23.70;70.00
59847;DHT22;45728;48.788;2.302;2022-08-14T07:52:25;23.70;69.70
59847;DHT22;45728;48.788;2.302;2022-08-14T07:54:52;23.70;70.00
59847;DHT22;45728;48.788;2.302;2022-08-14T07:57:19;23.80;69.90
59847;DHT22;45728;48.788;2.302;2022-08-14T07:59:45;24.00;70.10
59847;DHT22;45728;48.788;2.302;2022-08-14T08:02:12;24.20;71.10
59847;DHT22;45728;48.788;2.302;2022-08-14T08:04:41;24.40;71.50
59847;DHT22;45728;48.788;2.302;2022-08-14T08:07:08;24.60;71.30
59847;DHT22;45728;48.788;2.302;2022-08-14T08:09:34;24.80;71.00
59847;DHT22;45728;48.788;2.302;2022-08-14T08:12:01;24.90;70.70
59847;DHT22;45728;48.788;2.302;2022-08-14T08:14:27;25.00;71.00
59847;DHT22;45728;48.788;2.302;2022-08-14T08:16:53;25.00;71.10
59847;DHT22;45728;48.788;2.302;2022-08-14T08:19:20;25.10;71.40
59847;DHT22;45728;48.788;2.302;2022-08-14T08:21:46;25.10;72.70
59847;DHT22;45728;48.788;2.302;2022-08-14T08:24:12;25.20;73.20
59847;DHT22;45728;48.788;2.302;2022-08-14T08:26:38;25.20;73.90
59847;DHT22;45728;48.788;2.302;2022-08-14T08:29:04;25.30;74.60
59847;DHT22;45728;48.788;2.302;2022-08-14T08:31:30;25.50;75.00
59847;DHT22;45728;48.788;2.302;2022-08-14T08:33:56;25.70;74.60
59847;DHT22;45728;48.788;2.302;2022-08-14T08:36:22;25.80;75.30
59847;DHT22;45728;48.788;2.302;2022-08-14T08:38:48;25.90;75.50
59847;DHT22;45728;48.788;2.302;2022-08-14T08:41:15;26.20;75.60
59847;DHT22;45728;48.788;2.302;2022-08-14T08:43:41;26.30;75.80
59847;DHT22;45728;48.788;2.302;2022-08-14T08:46:08;26.20;76.20
59847;DHT22;45728;48.788;2.302;2022-08-14T08:51:18;26.40;76.50
59847;DHT22;45728;48.788;2.302;2022-08-14T08:53:44;26.60;76.30
59847;DHT22;45728;48.788;2.302;2022-08-14T08:56:10;26.50;76.10
59847;DHT22;45728;48.788;2.302;2022-08-14T08:58:36;26.50;76.00
59847;DHT22;45728;48.788;2.302;2022-08-14T09:01:02;26.60;75.70
59847;DHT22;45728;48.788;2.302;2022-08-14T09:03:28;26.70;75.60
59847;DHT22;45728;48.788;2.302;2022-08-14T09:06:01;26.80;75.10
59847;DHT22;45728;48.788;2.302;2022-08-14T09:08:29;26.70;75.30
59847;DHT22;45728;48.788;2.302;2022-08-14T09:10:56;27.00;75.00
59847;DHT22;45728;48.788;2.302;2022-08-14T09:13:22;26.90;75.10
59847;DHT22;45728;48.788;2.302;2022-08-14T09:15:51;27.00;75.00
59847;DHT22;45728;48.788;2.302;2022-08-14T09:18:18;27.30;74.80
59847;DHT22;45728;48.788;2.302;2022-08-14T09:20:45;27.50;74.10
59847;DHT22;45728;48.788;2.302;2022-08-14T09:23:12;27.50;74.00
59847;DHT22;45728;48.788;2.302;2022-08-14T09:25:38;27.50;74.00
59847;DHT22;45728;48.788;2.302;2022-08-14T09:28:06;27.70;73.60
59847;DHT22;45728;48.788;2.302;2022-08-14T09:30:34;27.70;72.90
59847;DHT22;45728;48.788;2.302;2022-08-14T09:35:32;27.60;72.60
59847;DHT22;45728;48.788;2.302;2022-08-14T09:38:15;27.60;73.00
59847;DHT22;45728;48.788;2.302;2022-08-14T09:43:28;28.10;72.60
59847;DHT22;45728;48.788;2.302;2022-08-14T09:45:55;28.20;72.00
59847;DHT22;45728;48.788;2.302;2022-08-14T09:48:24;28.10;71.80
59847;DHT22;45728;48.788;2.302;2022-08-14T09:50:53;28.10;71.20
59847;DHT22;45728;48.788;2.302;2022-08-14T09:56:06;28.30;71.80
59847;DHT22;45728;48.788;2.302;2022-08-14T09:58:36;28.30;71.40
59847;DHT22;45728;48.788;2.302;2022-08-14T10:01:11;28.30;71.40
59847;DHT22;45728;48.788;2.302;2022-08-14T10:03:38;28.30;71.30
59847;DHT22;45728;48.788;2.302;2022-08-14T10:06:13;28.50;71.10
59847;DHT22;45728;48.788;2.302;2022-08-14T10:08:52;28.70;71.20
59847;DHT22;45728;48.788;2.302;2022-08-14T10:11:20;28.70;71.10
59847;DHT22;45728;48.788;2.302;2022-08-14T10:13:57;28.70;71.00
59847;DHT22;45728;48.788;2.302;2022-08-14T10:16:24;28.40;71.40
59847;DHT22;45728;48.788;2.302;2022-08-14T10:21:29;28.60;71.70
59847;DHT22;45728;48.788;2.302;2022-08-14T10:23:55;28.60;71.30
59847;DHT22;45728;48.788;2.302;2022-08-14T10:26:21;28.50;70.80
59847;DHT22;45728;48.788;2.302;2022-08-14T10:28:50;28.30;71.20
59847;DHT22;45728;48.788;2.302;2022-08-14T10:33:42;27.90;71.50
59847;DHT22;45728;48.788;2.302;2022-08-14T10:36:08;28.00;71.60
59847;DHT22;45728;48.788;2.302;2022-08-14T10:38:35;28.10;71.80
59847;DHT22;45728;48.788;2.302;2022-08-14T10:41:11;28.20;71.60
59847;DHT22;45728;48.788;2.302;2022-08-14T10:43:41;28.10;71.70
59847;DHT22;45728;48.788;2.302;2022-08-14T10:46:11;28.30;71.00
59847;DHT22;45728;48.788;2.302;2022-08-14T10:48:37;28.40;70.70
59847;DHT22;45728;48.788;2.302;2022-08-14T10:51:03;28.50;70.80
59847;DHT22;45728;48.788;2.302;2022-08-14T10:53:30;28.50;70.70
59847;DHT22;45728;48.788;2.302;2022-08-14T10:55:58;28.40;70.60
59847;DHT22;45728;48.788;2.302;2022-08-14T10:58:28;28.50;70.50
59847;DHT22;45728;48.788;2.302;2022-08-14T11:00:56;28.60;70.80
59847;DHT22;45728;48.788;2.302;2022-08-14T11:03:22;28.40;71.30
59847;DHT22;45728;48.788;2.302;2022-08-14T11:05:52;28.40;71.40
59847;DHT22;45728;48.788;2.302;2022-08-14T11:08:28;28.40;71.20
59847;DHT22;45728;48.788;2.302;2022-08-14T11:10:55;28.40;71.40
59847;DHT22;45728;48.788;2.302;2022-08-14T11:13:24;28.40;71.70
59847;DHT22;45728;48.788;2.302;2022-08-14T11:15:52;28.30;72.70
59847;DHT22;45728;48.788;2.302;2022-08-14T11:18:20;28.30;73.10
59847;DHT22;45728;48.788;2.302;2022-08-14T11:20:50;28.30;73.30
59847;DHT22;45728;48.788;2.302;2022-08-14T11:23:20;28.20;73.70
59847;DHT22;45728;48.788;2.302;2022-08-14T11:25:47;28.00;73.60
59847;DHT22;45728;48.788;2.302;2022-08-14T11:28:14;28.00;72.90
59847;DHT22;45728;48.788;2.302;2022-08-14T11:30:43;28.00;73.30
59847;DHT22;45728;48.788;2.302;2022-08-14T11:33:10;28.10;73.40
59847;DHT22;45728;48.788;2.302;2022-08-14T11:35:36;28.10;73.60
59847;DHT22;45728;48.788;2.302;2022-08-14T11:38:04;27.90;74.10
59847;DHT22;45728;48.788;2.302;2022-08-14T11:40:31;28.00;74.40
59847;DHT22;45728;48.788;2.302;2022-08-14T11:43:00;28.10;74.50
59847;DHT22;45728;48.788;2.302;2022-08-14T11:45:30;28.00;74.50
59847;DHT22;45728;48.788;2.302;2022-08-14T11:47:58;27.80;76.60
59847;DHT22;45728;48.788;2.302;2022-08-14T11:50:25;27.60;78.10
59847;DHT22;45728;48.788;2.302;2022-08-14T11:52:52;27.50;79.10
59847;DHT22;45728;48.788;2.302;2022-08-14T11:55:23;27.30;80.40
59847;DHT22;45728;48.788;2.302;2022-08-14T11:57:57;27.30;80.00
59847;DHT22;45728;48.788;2.302;2022-08-14T12:00:23;27.00;80.50
59847;DHT22;45728;48.788;2.302;2022-08-14T12:02:53;26.50;81.30
59847;DHT22;45728;48.788;2.302;2022-08-14T12:05:28;26.60;81.60
59847;DHT22;45728;48.788;2.302;2022-08-14T12:07:56;26.60;82.00
59847;DHT22;45728;48.788;2.302;2022-08-14T12:10:22;26.50;82.10
59847;DHT22;45728;48.788;2.302;2022-08-14T12:12:48;26.20;83.20
59847;DHT22;45728;48.788;2.302;2022-08-14T12:15:14;26.10;83.70
59847;DHT22;45728;48.788;2.302;2022-08-14T12:17:45;26.00;84.50
59847;DHT22;45728;48.788;2.302;2022-08-14T12:20:16;26.00;83.90
59847;DHT22;45728;48.788;2.302;2022-08-14T12:22:44;25.90;83.70
59847;DHT22;45728;48.788;2.302;2022-08-14T12:25:11;25.90;83.90
59847;DHT22;45728;48.788;2.302;2022-08-14T12:30:04;25.80;85.20
59847;DHT22;45728;48.788;2.302;2022-08-14T12:32:43;25.60;86.80
59847;DHT22;45728;48.788;2.302;2022-08-14T12:35:12;25.60;87.70
59847;DHT22;45728;48.788;2.302;2022-08-14T12:37:45;25.50;89.60
59847;DHT22;45728;48.788;2.302;2022-08-14T12:40:12;25.20;90.80
59847;DHT22;45728;48.788;2.302;2022-08-14T12:42:38;25.00;91.90
59847;DHT22;45728;48.788;2.302;2022-08-14T12:45:05;25.00;92.00
59847;DHT22;45728;48.788;2.302;2022-08-14T12:47:31;24.80;92.90
59847;DHT22;45728;48.788;2.302;2022-08-14T12:49:57;24.70;93.10
59847;DHT22;45728;48.788;2.302;2022-08-14T12:52:28;24.70;93.60
59847;DHT22;45728;48.788;2.302;2022-08-14T12:55:03;24.70;94.10
59847;DHT22;45728;48.788;2.302;2022-08-14T12:57:37;24.80;93.90
59847;DHT22;45728;48.788;2.302;2022-08-14T13:00:06;24.80;93.80
59847;DHT22;45728;48.788;2.302;2022-08-14T13:02:36;24.80;94.50
59847;DHT22;45728;48.788;2.302;2022-08-14T13:05:02;24.80;94.60
59847;DHT22;45728;48.788;2.302;2022-08-14T13:07:28;24.80;94.10
59847;DHT22;45728;48.788;2.302;2022-08-14T13:09:55;24.80;94.40
59847;DHT22;45728;48.788;2.302;2022-08-14T13:12:24;24.70;94.50
59847;DHT22;45728;48.788;2.302;2022-08-14T13:14:54;24.60;95.00
59847;DHT22;45728;48.788;2.302;2022-08-14T13:17:20;24.70;95.70
59847;DHT22;45728;48.788;2.302;2022-08-14T13:19:47;24.80;95.60
59847;DHT22;45728;48.788;2.302;2022-08-14T13:22:13;24.80;96.00
59847;DHT22;45728;48.788;2.302;2022-08-14T13:24:40;24.80;95.90
59847;DHT22;45728;48.788;2.302;2022-08-14T13:27:06;24.70;97.50
59847;DHT22;45728;48.788;2.302;2022-08-14T13:29:34;24.90;97.60
59847;DHT22;45728;48.788;2.302;2022-08-14T13:32:03;25.00;97.00
59847;DHT22;45728;48.788;2.302;2022-08-14T13:34:30;25.00;97.60
59847;DHT22;45728;48.788;2.302;2022-08-14T13:36:56;25.00;97.70
59847;DHT22;45728;48.788;2.302;2022-08-14T13:39:23;25.00;97.80
59847;DHT22;45728;48.788;2.302;2022-08-14T13:41:49;25.10;98.10
59847;DHT22;45728;48.788;2.302;2022-08-14T13:44:15;25.10;97.70
59847;DHT22;45728;48.788;2.302;2022-08-14T13:46:43;25.00;98.00
59847;DHT22;45728;48.788;2.302;2022-08-14T13:49:10;24.90;98.00
59847;DHT22;45728;48.788;2.302;2022-08-14T13:51:40;25.00;98.10
59847;DHT22;45728;48.788;2.302;2022-08-14T13:54:12;24.90;98.30
59847;DHT22;45728;48.788;2.302;2022-08-14T13:56:40;25.00;97.80
59847;DHT22;45728;48.788;2.302;2022-08-14T13:59:06;25.10;98.10
59847;DHT22;45728;48.788;2.302;2022-08-14T14:01:32;25.10;97.60
59847;DHT22;45728;48.788;2.302;2022-08-14T14:04:01;25.10;98.10
59847;DHT22;45728;48.788;2.302;2022-08-14T14:06:27;25.20;97.90
59847;DHT22;45728;48.788;2.302;2022-08-14T14:08:55;25.50;97.60
59847;DHT22;45728;48.788;2.302;2022-08-14T14:11:22;25.50;97.40
59847;DHT22;45728;48.788;2.302;2022-08-14T14:13:54;25.50;97.30
59847;DHT22;45728;48.788;2.302;2022-08-14T14:16:21;25.80;96.70
59847;DHT22;45728;48.788;2.302;2022-08-14T14:18:48;25.80;96.60
59847;DHT22;45728;48.788;2.302;2022-08-14T14:21:18;26.00;96.80
59847;DHT22;45728;48.788;2.302;2022-08-14T14:23:45;26.10;96.60
59847;DHT22;45728;48.788;2.302;2022-08-14T14:26:12;26.10;95.80
59847;DHT22;45728;48.788;2.302;2022-08-14T14:28:41;26.20;95.60
59847;DHT22;45728;48.788;2.302;2022-08-14T14:31:07;26.10;95.20
59847;DHT22;45728;48.788;2.302;2022-08-14T14:33:39;26.10;95.30
59847;DHT22;45728;48.788;2.302;2022-08-14T14:36:07;26.10;95.20
59847;DHT22;45728;48.788;2.302;2022-08-14T14:38:34;26.10;95.10
59847;DHT22;45728;48.788;2.302;2022-08-14T14:41:06;26.10;95.20
59847;DHT22;45728;48.788;2.302;2022-08-14T14:43:33;26.10;95.40
59847;DHT22;45728;48.788;2.302;2022-08-14T14:46:00;26.30;95.20
59847;DHT22;45728;48.788;2.302;2022-08-14T14:48:25;26.60;94.80
59847;DHT22;45728;48.788;2.302;2022-08-14T14:50:54;26.70;94.70
59847;DHT22;45728;48.788;2.302;2022-08-14T14:53:22;26.80;94.60
59847;DHT22;45728;48.788;2.302;2022-08-14T14:55:48;26.90;94.50
59847;DHT22;45728;48.788;2.302;2022-08-14T14:58:14;27.00;94.50
59847;DHT22;45728;48.788;2.302;2022-08-14T15:00:41;26.90;94.80
59847;DHT22;45728;48.788;2.302;2022-08-14T15:03:07;27.00;94.50
59847;DHT22;45728;48.788;2.302;2022-08-14T15:05:35;26.90;94.60
59847;DHT22;45728;48.788;2.302;2022-08-14T15:08:00;26.70;94.90
59847;DHT22;45728;48.788;2.302;2022-08-14T15:10:26;26.80;94.80
59847;DHT22;45728;48.788;2.302;2022-08-14T15:12:53;26.80;95.50
59847;DHT22;45728;48.788;2.302;2022-08-14T15:15:19;27.00;96.10
59847;DHT22;45728;48.788;2.302;2022-08-14T15:17:45;27.20;96.80
59847;DHT22;45728;48.788;2.302;2022-08-14T15:20:12;27.30;97.10
59847;DHT22;45728;48.788;2.302;2022-08-14T15:22:38;27.30;97.30
59847;DHT22;45728;48.788;2.302;2022-08-14T15:25:08;27.30;97.40
59847;DHT22;45728;48.788;2.302;2022-08-14T15:27:37;26.90;98.10
59847;DHT22;45728;48.788;2.302;2022-08-14T15:30:07;27.00;97.90
59847;DHT22;45728;48.788;2.302;2022-08-14T15:32:33;27.00;97.90
59847;DHT22;45728;48.788;2.302;2022-08-14T15:34:59;27.00;97.80
59847;DHT22;45728;48.788;2.302;2022-08-14T15:37:26;27.10;97.90
59847;DHT22;45728;48.788;2.302;2022-08-14T15:39:52;27.10;97.30
59847;DHT22;45728;48.788;2.302;2022-08-14T15:42:19;27.10;97.20
59847;DHT22;45728;48.788;2.302;2022-08-14T15:44:48;27.10;97.20
59847;DHT22;45728;48.788;2.302;2022-08-14T15:47:14;26.50;98.20
59847;DHT22;45728;48.788;2.302;2022-08-14T15:49:40;26.10;98.80